Andrews, Texas
Current Conditions -  °F | °C
As of 11:35 PM on Thursday 27 Nov 2014 (Local Time) from KE11 Reporting Station
Clear Clear  
Wind Chill: 42°   Ceiling: Unl
Heat Index: 47°   Visibility: 10mi
Dew Point: 30°   Wind: 13mph
Humidity: 52%   Direction: 200°SSW
Pressure: 30.27"   Gusts: 17mph
Location:  32.32°N, 102.54°W
Report Text: KE11 280535Z AUTO 20011G15KT 10SM CLR 08/M01 A3027 RMK AO2 T00841010
Loading
Personal Weather Stations






























Interactive Weather Map New forecast layout! Learn more

10-Day Weather Forecast

Advertisements
Track Severe Weather on mobile